Arcola, Georgia
Current Conditions -  °F | °C
As of 3:35 PM on Saturday 25 Oct 2014 (Local Time) from KCWV Reporting Station
Clear Clear  
Wind Chill: 79°   Ceiling: Unl
Heat Index: 79°   Visibility: 10mi
Dew Point: 46°   Wind: 0mph
Humidity: 32%   Direction: NA
Pressure: 29.97"   Gusts: NA
Location:  32.2794°N, 81.623°W
Report Text: KCWV 251935Z AUTO 00000KT 10SM CLR 26/08 A2997 RMK AO2
Loading
Personal Weather Stations






























Interactive Weather Map
Tropical Storm Tracking
New forecast layout! Learn more

10-Day Weather Forecast

Advertisements
Track Severe Weather on mobile